Bookmark and Share
Track history (hours):
 

Tour Pomerol

Last reported at 2014-Apr-17 09:33 UTC. Time now 2014-Apr-17 09:35 UTC.
Position N 54°40' E 006°16'.

Length 120 m; draft 6.8 m.

Type: Tanker. MMSI: 563384980.

NotesDate/timePositionNaut miles runAvg speedWind from/ knotsBaromVisibWave heightAir tempDewpointWater temp
2014-Apr-17 09:33N 54°40' E 006°16'1211.9
2014-Apr-17 08:33N 54°43' E 005°56'1111.3
2014-Apr-17 07:33N 54°48' E 005°38'30 9.7
2014-Apr-17 04:27N 55°10' E 006°14'7 7.2
2014-Apr-17 03:28N 55°13' E 006°25'1111.8
2014-Apr-17 02:33N 55°06' E 006°11'1211.7
2014-Apr-17 01:33N 54°58' E 005°55'1311.7
2014-Apr-17 00:28N 54°50' E 005°38'12412.1
2014-Apr-16 14:10N 53°28' E 002°59'1012.6
2014-Apr-16 13:21N 53°18' E 002°52'5210.5
2014-Apr-16 08:26N 52°31' E 003°26'1112.3
2014-Apr-16 07:33N 52°32' E 003°44'1212.4
2014-Apr-16 06:33N 52°32' E 004°04'1312.8
2014-Apr-16 05:33N 52°29' E 004°25'7 7.1
2014-Apr-16 04:34N 52°28' E 004°37'5 5.4
2014-Apr-16 03:34N 52°26' E 004°45'4 3.9
2014-Apr-16 02:33N 52°25' E 004°51'0 0.0
2014-Apr-16 01:33N 52°25' E 004°51'0 0.0
2014-Apr-16 00:33N 52°25' E 004°51'0 0.0
2014-Apr-15 23:33N 52°25' E 004°51'0 0.0
2014-Apr-15 22:33N 52°25' E 004°51'0 0.0
2014-Apr-15 21:33N 52°25' E 004°51'0 0.0
2014-Apr-15 20:33N 52°25' E 004°51'0 0.0
2014-Apr-15 19:30N 52°25' E 004°51'0 0.0
2014-Apr-15 18:33N 52°25' E 004°51'0 0.0
2014-Apr-15 17:33N 52°25' E 004°51'0 0.0
2014-Apr-15 16:33N 52°25' E 004°51'0 0.0
2014-Apr-15 15:33N 52°25' E 004°51'0 0.0
2014-Apr-15 14:33N 52°25' E 004°51'0 0.0
2014-Apr-15 12:34N 52°25' E 004°51'0 0.0
2014-Apr-15 11:34N 52°25' E 004°51'0 0.0
2014-Apr-15 10:33N 52°25' E 004°51'0 0.0
2014-Apr-15 09:33N 52°25' E 004°51'0 0.0
2014-Apr-15 08:33N 52°25' E 004°51'0 0.0
2014-Apr-15 07:33N 52°25' E 004°51'0 0.0
2014-Apr-15 06:33N 52°25' E 004°51'0 0.0
2014-Apr-15 05:33N 52°25' E 004°51'0 0.0
2014-Apr-15 03:33N 52°25' E 004°51'0 0.0
2014-Apr-15 02:33N 52°25' E 004°51'0 0.0
2014-Apr-15 01:33N 52°25' E 004°51'0 0.0
2014-Apr-15 00:33N 52°25' E 004°51'0 0.0
2014-Apr-14 23:33N 52°25' E 004°51'0 0.0
2014-Apr-14 22:33N 52°25' E 004°51'0 0.0
2014-Apr-14 21:33N 52°25' E 004°51'0 0.0
2014-Apr-14 20:30N 52°25' E 004°51'0 0.0
2014-Apr-14 19:30N 52°25' E 004°51'0 0.0
2014-Apr-14 18:33N 52°25' E 004°51'0 0.0
2014-Apr-14 17:33N 52°25' E 004°51'0 0.0
2014-Apr-14 16:30N 52°25' E 004°51'0 0.0
2014-Apr-14 15:30N 52°25' E 004°51'0 0.0
2014-Apr-14 14:33N 52°25' E 004°51'0 0.0
2014-Apr-14 13:33N 52°25' E 004°51'0 0.0
2014-Apr-14 11:33N 52°25' E 004°51'0 0.0
2014-Apr-14 10:33N 52°25' E 004°51'0 0.0
2014-Apr-14 09:33N 52°25' E 004°51'0 0.0
2014-Apr-14 08:30N 52°25' E 004°51'0 0.0
2014-Apr-14 07:33N 52°25' E 004°51'0 0.0
2014-Apr-14 06:33N 52°25' E 004°51'0 0.0
2014-Apr-13 22:33N 52°25' E 004°51'0 0.0
2014-Apr-13 21:33N 52°25' E 004°51'0 0.0
2014-Apr-13 20:33N 52°25' E 004°51'0 0.0
2014-Apr-13 19:33N 52°25' E 004°51'0 0.0
2014-Apr-13 18:33N 52°25' E 004°51'0 0.0
2014-Apr-13 17:33N 52°25' E 004°51'0 0.2
2014-Apr-13 16:34N 52°25' E 004°51'6 6.1
2014-Apr-13 15:33N 52°27' E 004°41'4 3.7
2014-Apr-13 14:34N 52°28' E 004°35'8 8.4
2014-Apr-13 13:34N 52°29' E 004°21'1110.6
2014-Apr-13 12:33N 52°28' E 004°04'1211.7
2014-Apr-13 11:30N 52°26' E 003°44'6510.7
2014-Apr-13 05:26N 51°40' E 002°29'1011.4
2014-Apr-13 04:33N 51°32' E 002°18'1211.8
2014-Apr-13 03:32N 51°22' E 002°10'1211.9
2014-Apr-13 02:33N 51°12' E 002°00'1413.0
2014-Apr-13 01:27N 51°03' E 001°42'3913.4
2014-Apr-12 22:33N 50°32' E 001°05'1312.8
2014-Apr-12 21:33N 50°26' E 000°47'1413.8
2014-Apr-12 20:33N 50°23' E 000°26'6215.1
2014-Apr-12 16:27N 50°06' W 001°07'  
2014-Apr-09 18:13N 38°28' W 009°56'912.9
2014-Apr-09 17:30N 38°19' W 009°56'1212.8
2014-Apr-09 16:32N 38°06' W 009°56'1313.0
2014-Apr-09 15:33N 37°53' W 009°56'1312.9
2014-Apr-09 14:33N 37°41' W 009°56'1312.8
2014-Apr-09 13:33N 37°28' W 009°56'1612.8
2014-Apr-09 12:18N 37°12' W 009°56'8712.8
2014-Apr-09 05:27N 35°45' W 010°07'1213.5
2014-Apr-09 04:33N 35°34' W 010°14'2013.8
2014-Apr-09 03:08N 35°17' W 010°27'813.7
2014-Apr-09 02:33N 35°11' W 010°32'1413.5
2014-Apr-09 01:32N 34°59' W 010°40'  

Dump ship's entire track history

sailing weather and tide predictions

Tour Pomerol — 9V9183 — position and weather